sensor_id;sensor_type;location;lat;lon;timestamp;P1;durP1;ratioP1;P2;durP2;ratioP2
703;SDS011;335;48.694;9.120;2024-01-16T00:01:01;6.47;;;4.93;;
703;SDS011;335;48.694;9.120;2024-01-16T00:03:47;5.30;;;4.10;;
703;SDS011;335;48.694;9.120;2024-01-16T00:06:32;4.53;;;4.22;;
703;SDS011;335;48.694;9.120;2024-01-16T00:09:17;6.25;;;4.70;;
703;SDS011;335;48.694;9.120;2024-01-16T00:12:03;5.40;;;4.43;;
703;SDS011;335;48.694;9.120;2024-01-16T00:14:49;5.30;;;4.70;;
703;SDS011;335;48.694;9.120;2024-01-16T00:17:34;4.72;;;4.30;;
703;SDS011;335;48.694;9.120;2024-01-16T00:20:20;5.82;;;4.80;;
703;SDS011;335;48.694;9.120;2024-01-16T00:23:07;4.45;;;4.05;;
703;SDS011;335;48.694;9.120;2024-01-16T00:25:52;4.88;;;3.97;;
703;SDS011;335;48.694;9.120;2024-01-16T00:28:38;7.82;;;5.75;;
703;SDS011;335;48.694;9.120;2024-01-16T00:31:28;5.70;;;4.97;;
703;SDS011;335;48.694;9.120;2024-01-16T00:34:13;6.13;;;4.65;;
703;SDS011;335;48.694;9.120;2024-01-16T00:36:58;4.65;;;4.22;;
703;SDS011;335;48.694;9.120;2024-01-16T00:39:44;4.60;;;4.20;;
703;SDS011;335;48.694;9.120;2024-01-16T00:42:29;4.93;;;4.43;;
703;SDS011;335;48.694;9.120;2024-01-16T00:45:17;5.00;;;4.18;;
703;SDS011;335;48.694;9.120;2024-01-16T00:48:03;4.95;;;4.20;;
703;SDS011;335;48.694;9.120;2024-01-16T00:50:50;4.68;;;3.95;;
703;SDS011;335;48.694;9.120;2024-01-16T00:53:39;4.40;;;4.10;;
703;SDS011;335;48.694;9.120;2024-01-16T00:56:27;5.13;;;4.30;;
703;SDS011;335;48.694;9.120;2024-01-16T00:59:13;4.10;;;3.80;;
703;SDS011;335;48.694;9.120;2024-01-16T01:01:58;4.22;;;3.83;;
703;SDS011;335;48.694;9.120;2024-01-16T01:04:44;5.35;;;3.97;;
703;SDS011;335;48.694;9.120;2024-01-16T01:07:29;3.95;;;3.65;;
703;SDS011;335;48.694;9.120;2024-01-16T01:10:14;4.03;;;3.70;;
703;SDS011;335;48.694;9.120;2024-01-16T01:13:00;5.53;;;3.63;;
703;SDS011;335;48.694;9.120;2024-01-16T01:15:46;4.22;;;3.65;;
703;SDS011;335;48.694;9.120;2024-01-16T01:18:31;4.55;;;4.15;;
703;SDS011;335;48.694;9.120;2024-01-16T01:21:17;6.55;;;4.75;;
703;SDS011;335;48.694;9.120;2024-01-16T01:24:02;4.90;;;3.85;;
703;SDS011;335;48.694;9.120;2024-01-16T01:26:48;8.95;;;4.35;;
703;SDS011;335;48.694;9.120;2024-01-16T01:29:33;5.50;;;4.13;;
703;SDS011;335;48.694;9.120;2024-01-16T01:32:18;3.78;;;3.42;;
703;SDS011;335;48.694;9.120;2024-01-16T01:35:04;8.27;;;4.05;;
703;SDS011;335;48.694;9.120;2024-01-16T01:37:50;4.03;;;3.70;;
703;SDS011;335;48.694;9.120;2024-01-16T01:40:35;6.60;;;4.63;;
703;SDS011;335;48.694;9.120;2024-01-16T01:43:21;4.15;;;3.75;;
703;SDS011;335;48.694;9.120;2024-01-16T01:46:13;4.07;;;3.67;;
703;SDS011;335;48.694;9.120;2024-01-16T01:49:00;5.30;;;4.45;;
703;SDS011;335;48.694;9.120;2024-01-16T01:51:46;6.25;;;4.10;;
703;SDS011;335;48.694;9.120;2024-01-16T01:54:35;3.83;;;3.53;;
703;SDS011;335;48.694;9.120;2024-01-16T01:57:21;4.40;;;4.00;;
703;SDS011;335;48.694;9.120;2024-01-16T02:00:06;4.15;;;3.85;;
703;SDS011;335;48.694;9.120;2024-01-16T02:02:52;3.60;;;3.40;;
703;SDS011;335;48.694;9.120;2024-01-16T02:05:38;4.80;;;3.92;;
703;SDS011;335;48.694;9.120;2024-01-16T02:08:23;3.90;;;3.60;;
703;SDS011;335;48.694;9.120;2024-01-16T02:11:09;4.55;;;4.13;;
703;SDS011;335;48.694;9.120;2024-01-16T02:13:55;5.05;;;4.25;;
703;SDS011;335;48.694;9.120;2024-01-16T02:16:40;4.82;;;3.90;;
703;SDS011;335;48.694;9.120;2024-01-16T02:19:26;4.70;;;3.60;;
703;SDS011;335;48.694;9.120;2024-01-16T02:22:14;5.75;;;3.60;;
703;SDS011;335;48.694;9.120;2024-01-16T02:25:01;3.95;;;3.63;;
703;SDS011;335;48.694;9.120;2024-01-16T02:27:46;3.90;;;3.60;;
703;SDS011;335;48.694;9.120;2024-01-16T02:30:32;4.72;;;4.07;;
703;SDS011;335;48.694;9.120;2024-01-16T02:33:17;4.40;;;4.00;;
703;SDS011;335;48.694;9.120;2024-01-16T02:36:03;4.85;;;4.20;;
703;SDS011;335;48.694;9.120;2024-01-16T02:38:48;4.13;;;3.70;;
703;SDS011;335;48.694;9.120;2024-01-16T02:41:34;7.10;;;4.50;;
703;SDS011;335;48.694;9.120;2024-01-16T02:44:19;3.50;;;3.20;;
703;SDS011;335;48.694;9.120;2024-01-16T02:47:05;4.20;;;3.90;;
703;SDS011;335;48.694;9.120;2024-01-16T02:49:52;4.80;;;3.67;;
703;SDS011;335;48.694;9.120;2024-01-16T02:52:37;4.95;;;4.55;;
703;SDS011;335;48.694;9.120;2024-01-16T02:55:23;4.68;;;4.20;;
703;SDS011;335;48.694;9.120;2024-01-16T02:58:08;4.82;;;4.35;;
703;SDS011;335;48.694;9.120;2024-01-16T03:00:54;4.13;;;3.80;;
703;SDS011;335;48.694;9.120;2024-01-16T03:03:39;3.55;;;3.30;;
703;SDS011;335;48.694;9.120;2024-01-16T03:06:25;4.28;;;3.92;;
703;SDS011;335;48.694;9.120;2024-01-16T03:09:10;4.10;;;3.70;;
703;SDS011;335;48.694;9.120;2024-01-16T03:11:57;4.78;;;3.20;;
703;SDS011;335;48.694;9.120;2024-01-16T03:14:42;4.75;;;4.03;;
703;SDS011;335;48.694;9.120;2024-01-16T03:17:28;4.75;;;4.00;;
703;SDS011;335;48.694;9.120;2024-01-16T03:20:13;4.28;;;3.63;;
703;SDS011;335;48.694;9.120;2024-01-16T03:22:58;3.90;;;3.60;;
703;SDS011;335;48.694;9.120;2024-01-16T03:25:44;7.30;;;4.38;;
703;SDS011;335;48.694;9.120;2024-01-16T03:28:29;4.32;;;3.67;;
703;SDS011;335;48.694;9.120;2024-01-16T03:31:14;5.85;;;4.55;;
703;SDS011;335;48.694;9.120;2024-01-16T03:34:00;5.32;;;4.35;;
703;SDS011;335;48.694;9.120;2024-01-16T03:36:46;4.60;;;4.05;;
703;SDS011;335;48.694;9.120;2024-01-16T03:39:32;6.95;;;4.20;;
703;SDS011;335;48.694;9.120;2024-01-16T03:42:17;3.95;;;3.30;;
703;SDS011;335;48.694;9.120;2024-01-16T03:45:03;4.18;;;3.88;;
703;SDS011;335;48.694;9.120;2024-01-16T03:47:50;4.10;;;3.78;;
703;SDS011;335;48.694;9.120;2024-01-16T03:50:36;4.05;;;3.75;;
703;SDS011;335;48.694;9.120;2024-01-16T03:53:21;4.40;;;3.95;;
703;SDS011;335;48.694;9.120;2024-01-16T03:56:07;5.03;;;3.75;;
703;SDS011;335;48.694;9.120;2024-01-16T03:58:53;6.18;;;5.05;;
703;SDS011;335;48.694;9.120;2024-01-16T04:01:38;4.25;;;3.95;;
703;SDS011;335;48.694;9.120;2024-01-16T04:04:23;6.50;;;4.63;;
703;SDS011;335;48.694;9.120;2024-01-16T04:07:09;3.92;;;3.65;;
703;SDS011;335;48.694;9.120;2024-01-16T04:09:54;3.45;;;3.15;;
703;SDS011;335;48.694;9.120;2024-01-16T04:12:39;4.63;;;3.33;;
703;SDS011;335;48.694;9.120;2024-01-16T04:15:25;3.95;;;3.55;;
703;SDS011;335;48.694;9.120;2024-01-16T04:18:10;3.90;;;3.47;;
703;SDS011;335;48.694;9.120;2024-01-16T04:20:55;4.88;;;4.10;;
703;SDS011;335;48.694;9.120;2024-01-16T04:23:41;5.38;;;4.53;;
703;SDS011;335;48.694;9.120;2024-01-16T04:26:27;5.28;;;3.83;;
703;SDS011;335;48.694;9.120;2024-01-16T04:29:12;3.05;;;2.85;;
703;SDS011;335;48.694;9.120;2024-01-16T04:31:59;5.68;;;3.55;;
703;SDS011;335;48.694;9.120;2024-01-16T04:34:44;4.00;;;3.70;;
703;SDS011;335;48.694;9.120;2024-01-16T04:37:30;4.75;;;4.03;;
703;SDS011;335;48.694;9.120;2024-01-16T04:40:15;4.70;;;4.40;;
703;SDS011;335;48.694;9.120;2024-01-16T04:43:00;4.35;;;4.00;;
703;SDS011;335;48.694;9.120;2024-01-16T04:45:47;5.05;;;3.97;;
703;SDS011;335;48.694;9.120;2024-01-16T04:48:32;6.82;;;4.72;;
703;SDS011;335;48.694;9.120;2024-01-16T04:51:18;4.50;;;4.00;;
703;SDS011;335;48.694;9.120;2024-01-16T04:54:03;5.07;;;3.92;;
703;SDS011;335;48.694;9.120;2024-01-16T04:56:48;3.45;;;3.25;;
703;SDS011;335;48.694;9.120;2024-01-16T04:59:34;5.82;;;3.90;;
703;SDS011;335;48.694;9.120;2024-01-16T05:02:19;6.57;;;4.40;;
703;SDS011;335;48.694;9.120;2024-01-16T05:05:05;4.45;;;3.85;;
703;SDS011;335;48.694;9.120;2024-01-16T05:07:51;3.80;;;3.50;;
703;SDS011;335;48.694;9.120;2024-01-16T05:10:36;4.00;;;3.70;;
703;SDS011;335;48.694;9.120;2024-01-16T05:13:21;3.88;;;3.67;;
703;SDS011;335;48.694;9.120;2024-01-16T05:16:07;7.80;;;4.57;;
703;SDS011;335;48.694;9.120;2024-01-16T05:18:53;3.95;;;3.65;;
703;SDS011;335;48.694;9.120;2024-01-16T05:21:40;5.30;;;4.18;;
703;SDS011;335;48.694;9.120;2024-01-16T05:24:25;5.72;;;4.07;;
703;SDS011;335;48.694;9.120;2024-01-16T05:27:11;3.80;;;3.45;;
703;SDS011;335;48.694;9.120;2024-01-16T05:29:56;4.30;;;3.53;;
703;SDS011;335;48.694;9.120;2024-01-16T05:32:41;4.75;;;4.35;;
703;SDS011;335;48.694;9.120;2024-01-16T05:35:27;4.10;;;3.78;;
703;SDS011;335;48.694;9.120;2024-01-16T05:38:15;4.13;;;3.80;;
703;SDS011;335;48.694;9.120;2024-01-16T05:41:01;5.15;;;4.70;;
703;SDS011;335;48.694;9.120;2024-01-16T05:43:48;7.05;;;5.00;;
703;SDS011;335;48.694;9.120;2024-01-16T05:46:34;4.15;;;3.75;;
703;SDS011;335;48.694;9.120;2024-01-16T05:49:19;5.50;;;4.05;;
703;SDS011;335;48.694;9.120;2024-01-16T05:52:04;4.55;;;4.15;;
703;SDS011;335;48.694;9.120;2024-01-16T05:54:50;4.32;;;3.92;;
703;SDS011;335;48.694;9.120;2024-01-16T05:57:35;4.15;;;3.85;;
703;SDS011;335;48.694;9.120;2024-01-16T06:00:22;5.72;;;4.70;;
703;SDS011;335;48.694;9.120;2024-01-16T06:03:08;4.10;;;3.70;;
703;SDS011;335;48.694;9.120;2024-01-16T06:05:53;5.03;;;3.80;;
703;SDS011;335;48.694;9.120;2024-01-16T06:08:38;8.43;;;3.00;;
703;SDS011;335;48.694;9.120;2024-01-16T06:11:33;4.35;;;3.70;;
703;SDS011;335;48.694;9.120;2024-01-16T06:14:19;4.82;;;3.83;;
703;SDS011;335;48.694;9.120;2024-01-16T06:17:06;3.67;;;3.38;;
703;SDS011;335;48.694;9.120;2024-01-16T06:19:52;3.28;;;2.97;;
703;SDS011;335;48.694;9.120;2024-01-16T06:22:37;3.45;;;3.15;;
703;SDS011;335;48.694;9.120;2024-01-16T06:25:22;4.63;;;4.22;;
703;SDS011;335;48.694;9.120;2024-01-16T06:28:08;4.15;;;3.40;;
703;SDS011;335;48.694;9.120;2024-01-16T06:30:53;5.88;;;3.30;;
703;SDS011;335;48.694;9.120;2024-01-16T06:33:38;4.95;;;4.25;;
703;SDS011;335;48.694;9.120;2024-01-16T06:36:24;4.15;;;3.78;;
703;SDS011;335;48.694;9.120;2024-01-16T06:39:09;3.30;;;3.10;;
703;SDS011;335;48.694;9.120;2024-01-16T06:41:58;4.80;;;3.90;;
703;SDS011;335;48.694;9.120;2024-01-16T06:44:43;3.70;;;3.40;;
703;SDS011;335;48.694;9.120;2024-01-16T06:47:28;4.30;;;3.30;;
703;SDS011;335;48.694;9.120;2024-01-16T06:50:14;3.60;;;3.30;;
703;SDS011;335;48.694;9.120;2024-01-16T06:52:59;5.53;;;3.92;;
703;SDS011;335;48.694;9.120;2024-01-16T06:55:45;3.67;;;3.05;;
703;SDS011;335;48.694;9.120;2024-01-16T06:58:30;4.68;;;3.80;;
703;SDS011;335;48.694;9.120;2024-01-16T07:01:15;3.20;;;3.00;;
703;SDS011;335;48.694;9.120;2024-01-16T07:04:01;3.45;;;2.80;;
703;SDS011;335;48.694;9.120;2024-01-16T07:06:49;3.70;;;3.40;;
703;SDS011;335;48.694;9.120;2024-01-16T07:09:35;5.35;;;3.40;;
703;SDS011;335;48.694;9.120;2024-01-16T07:12:20;4.25;;;3.72;;
703;SDS011;335;48.694;9.120;2024-01-16T07:15:05;3.75;;;3.40;;
703;SDS011;335;48.694;9.120;2024-01-16T07:17:51;3.20;;;3.00;;
703;SDS011;335;48.694;9.120;2024-01-16T07:20:37;4.50;;;3.67;;
703;SDS011;335;48.694;9.120;2024-01-16T07:23:22;3.33;;;3.03;;
703;SDS011;335;48.694;9.120;2024-01-16T07:26:08;3.25;;;3.05;;
703;SDS011;335;48.694;9.120;2024-01-16T07:28:53;4.22;;;3.80;;
703;SDS011;335;48.694;9.120;2024-01-16T07:31:38;3.38;;;3.00;;
703;SDS011;335;48.694;9.120;2024-01-16T07:34:24;3.05;;;2.75;;
703;SDS011;335;48.694;9.120;2024-01-16T07:37:10;2.85;;;2.65;;
703;SDS011;335;48.694;9.120;2024-01-16T07:39:55;4.05;;;2.88;;
703;SDS011;335;48.694;9.120;2024-01-16T07:42:41;3.05;;;2.85;;
703;SDS011;335;48.694;9.120;2024-01-16T07:45:26;3.92;;;3.53;;
703;SDS011;335;48.694;9.120;2024-01-16T07:48:12;3.10;;;2.85;;
703;SDS011;335;48.694;9.120;2024-01-16T07:50:57;3.03;;;2.75;;
703;SDS011;335;48.694;9.120;2024-01-16T07:53:42;3.85;;;3.55;;
703;SDS011;335;48.694;9.120;2024-01-16T07:56:28;2.65;;;2.45;;
703;SDS011;335;48.694;9.120;2024-01-16T07:59:13;3.20;;;2.90;;
703;SDS011;335;48.694;9.120;2024-01-16T08:01:59;4.50;;;3.47;;
703;SDS011;335;48.694;9.120;2024-01-16T08:04:44;3.28;;;3.08;;
703;SDS011;335;48.694;9.120;2024-01-16T08:07:29;4.68;;;2.90;;
703;SDS011;335;48.694;9.120;2024-01-16T08:10:15;2.75;;;2.55;;
703;SDS011;335;48.694;9.120;2024-01-16T08:13:01;2.80;;;2.60;;
703;SDS011;335;48.694;9.120;2024-01-16T08:15:49;3.13;;;2.83;;
703;SDS011;335;48.694;9.120;2024-01-16T08:18:35;3.90;;;3.50;;
703;SDS011;335;48.694;9.120;2024-01-16T08:21:20;3.30;;;3.00;;
703;SDS011;335;48.694;9.120;2024-01-16T08:24:05;7.65;;;3.72;;
703;SDS011;335;48.694;9.120;2024-01-16T08:26:51;3.40;;;3.10;;
703;SDS011;335;48.694;9.120;2024-01-16T08:29:36;3.83;;;2.85;;
703;SDS011;335;48.694;9.120;2024-01-16T08:32:21;2.95;;;2.75;;
703;SDS011;335;48.694;9.120;2024-01-16T08:35:07;4.43;;;3.00;;
703;SDS011;335;48.694;9.120;2024-01-16T08:37:53;3.72;;;3.10;;
703;SDS011;335;48.694;9.120;2024-01-16T08:40:39;4.50;;;3.40;;
703;SDS011;335;48.694;9.120;2024-01-16T08:43:24;4.28;;;2.90;;
703;SDS011;335;48.694;9.120;2024-01-16T08:46:10;2.97;;;2.78;;
703;SDS011;335;48.694;9.120;2024-01-16T08:48:55;3.78;;;3.25;;
703;SDS011;335;48.694;9.120;2024-01-16T08:51:40;2.67;;;2.47;;
703;SDS011;335;48.694;9.120;2024-01-16T08:54:26;3.08;;;2.88;;
703;SDS011;335;48.694;9.120;2024-01-16T08:57:11;2.05;;;1.95;;
703;SDS011;335;48.694;9.120;2024-01-16T08:59:58;3.08;;;2.47;;
703;SDS011;335;48.694;9.120;2024-01-16T09:02:43;2.67;;;2.58;;
703;SDS011;335;48.694;9.120;2024-01-16T09:05:28;2.78;;;2.58;;
703;SDS011;335;48.694;9.120;2024-01-16T09:08:14;3.47;;;3.05;;
703;SDS011;335;48.694;9.120;2024-01-16T09:10:59;2.38;;;2.28;;
703;SDS011;335;48.694;9.120;2024-01-16T09:13:45;2.90;;;2.70;;
703;SDS011;335;48.694;9.120;2024-01-16T09:16:30;2.50;;;2.30;;
703;SDS011;335;48.694;9.120;2024-01-16T09:19:15;2.80;;;2.60;;
703;SDS011;335;48.694;9.120;2024-01-16T09:22:01;4.47;;;2.40;;
703;SDS011;335;48.694;9.120;2024-01-16T09:24:48;1.75;;;1.65;;
703;SDS011;335;48.694;9.120;2024-01-16T09:27:33;2.03;;;1.92;;
703;SDS011;335;48.694;9.120;2024-01-16T09:30:18;2.05;;;1.95;;
703;SDS011;335;48.694;9.120;2024-01-16T09:33:04;3.33;;;2.60;;
703;SDS011;335;48.694;9.120;2024-01-16T09:35:51;2.10;;;1.98;;
703;SDS011;335;48.694;9.120;2024-01-16T09:38:37;3.35;;;1.90;;
703;SDS011;335;48.694;9.120;2024-01-16T09:41:23;3.67;;;2.70;;
703;SDS011;335;48.694;9.120;2024-01-16T09:44:08;2.97;;;2.88;;
703;SDS011;335;48.694;9.120;2024-01-16T09:46:54;2.40;;;2.20;;
703;SDS011;335;48.694;9.120;2024-01-16T09:49:41;2.15;;;1.67;;
703;SDS011;335;48.694;9.120;2024-01-16T09:52:27;2.40;;;2.30;;
703;SDS011;335;48.694;9.120;2024-01-16T09:55:13;2.50;;;2.40;;
703;SDS011;335;48.694;9.120;2024-01-16T09:57:59;2.07;;;1.80;;
703;SDS011;335;48.694;9.120;2024-01-16T10:00:44;2.20;;;2.00;;
703;SDS011;335;48.694;9.120;2024-01-16T10:03:30;2.47;;;2.27;;
703;SDS011;335;48.694;9.120;2024-01-16T10:06:16;3.47;;;3.17;;
703;SDS011;335;48.694;9.120;2024-01-16T10:09:03;2.30;;;2.20;;
703;SDS011;335;48.694;9.120;2024-01-16T10:11:50;4.57;;;2.37;;
703;SDS011;335;48.694;9.120;2024-01-16T10:14:36;3.03;;;2.60;;
703;SDS011;335;48.694;9.120;2024-01-16T10:17:22;1.80;;;1.70;;
703;SDS011;335;48.694;9.120;2024-01-16T10:20:07;2.00;;;1.90;;
703;SDS011;335;48.694;9.120;2024-01-16T10:22:58;2.10;;;2.00;;
703;SDS011;335;48.694;9.120;2024-01-16T10:25:43;3.03;;;2.90;;
703;SDS011;335;48.694;9.120;2024-01-16T10:28:29;2.17;;;1.93;;
703;SDS011;335;48.694;9.120;2024-01-16T10:31:14;1.87;;;1.77;;
703;SDS011;335;48.694;9.120;2024-01-16T10:33:59;1.60;;;1.60;;
703;SDS011;335;48.694;9.120;2024-01-16T10:36:45;2.33;;;2.23;;
703;SDS011;335;48.694;9.120;2024-01-16T10:39:30;1.60;;;1.50;;
703;SDS011;335;48.694;9.120;2024-01-16T10:42:15;2.10;;;2.00;;
703;SDS011;335;48.694;9.120;2024-01-16T10:45:01;2.10;;;1.87;;
703;SDS011;335;48.694;9.120;2024-01-16T10:47:55;1.63;;;1.43;;
703;SDS011;335;48.694;9.120;2024-01-16T10:50:50;1.73;;;1.63;;
703;SDS011;335;48.694;9.120;2024-01-16T10:53:36;1.90;;;1.80;;
703;SDS011;335;48.694;9.120;2024-01-16T10:56:22;1.83;;;1.73;;
703;SDS011;335;48.694;9.120;2024-01-16T10:59:31;1.87;;;1.77;;
703;SDS011;335;48.694;9.120;2024-01-16T11:02:20;2.40;;;2.00;;
703;SDS011;335;48.694;9.120;2024-01-16T11:05:06;1.80;;;1.70;;
703;SDS011;335;48.694;9.120;2024-01-16T11:07:53;1.77;;;1.67;;
703;SDS011;335;48.694;9.120;2024-01-16T11:10:39;1.40;;;1.40;;
703;SDS011;335;48.694;9.120;2024-01-16T11:13:25;1.93;;;1.80;;
703;SDS011;335;48.694;9.120;2024-01-16T11:16:11;2.50;;;1.83;;
703;SDS011;335;48.694;9.120;2024-01-16T11:18:56;1.97;;;1.80;;
703;SDS011;335;48.694;9.120;2024-01-16T11:21:42;2.20;;;2.10;;
703;SDS011;335;48.694;9.120;2024-01-16T11:24:28;2.10;;;2.00;;
703;SDS011;335;48.694;9.120;2024-01-16T11:27:21;1.73;;;1.70;;
703;SDS011;335;48.694;9.120;2024-01-16T11:30:10;1.50;;;1.40;;
703;SDS011;335;48.694;9.120;2024-01-16T11:32:56;1.70;;;1.60;;
703;SDS011;335;48.694;9.120;2024-01-16T11:35:42;1.60;;;1.50;;
703;SDS011;335;48.694;9.120;2024-01-16T11:38:27;1.87;;;1.77;;
703;SDS011;335;48.694;9.120;2024-01-16T11:41:37;1.43;;;1.33;;
703;SDS011;335;48.694;9.120;2024-01-16T11:44:39;1.20;;;1.20;;
703;SDS011;335;48.694;9.120;2024-01-16T11:47:25;1.30;;;1.20;;
703;SDS011;335;48.694;9.120;2024-01-16T11:50:11;1.10;;;1.10;;
703;SDS011;335;48.694;9.120;2024-01-16T11:52:57;1.40;;;1.40;;
703;SDS011;335;48.694;9.120;2024-01-16T12:01:54;1.70;;;1.60;;
703;SDS011;335;48.694;9.120;2024-01-16T12:04:42;1.80;;;1.70;;
703;SDS011;335;48.694;9.120;2024-01-16T12:07:28;1.53;;;1.43;;
703;SDS011;335;48.694;9.120;2024-01-16T12:10:13;2.23;;;2.13;;
703;SDS011;335;48.694;9.120;2024-01-16T12:12:59;1.83;;;1.23;;
703;SDS011;335;48.694;9.120;2024-01-16T12:15:47;1.80;;;1.70;;
703;SDS011;335;48.694;9.120;2024-01-16T12:18:32;1.37;;;1.37;;
703;SDS011;335;48.694;9.120;2024-01-16T12:21:18;3.20;;;3.00;;
703;SDS011;335;48.694;9.120;2024-01-16T12:24:03;2.80;;;2.00;;
703;SDS011;335;48.694;9.120;2024-01-16T12:26:49;7.90;;;5.60;;
703;SDS011;335;48.694;9.120;2024-01-16T12:29:34;2.20;;;2.00;;
703;SDS011;335;48.694;9.120;2024-01-16T12:32:21;1.57;;;1.50;;
703;SDS011;335;48.694;9.120;2024-01-16T12:35:07;2.10;;;2.00;;
703;SDS011;335;48.694;9.120;2024-01-16T12:37:59;2.13;;;1.70;;
703;SDS011;335;48.694;9.120;2024-01-16T12:40:49;3.37;;;1.90;;
703;SDS011;335;48.694;9.120;2024-01-16T12:43:36;1.80;;;1.70;;
703;SDS011;335;48.694;9.120;2024-01-16T12:46:24;2.00;;;1.87;;
703;SDS011;335;48.694;9.120;2024-01-16T12:49:10;1.90;;;1.70;;
703;SDS011;335;48.694;9.120;2024-01-16T12:55:07;1.83;;;1.73;;
703;SDS011;335;48.694;9.120;2024-01-16T13:01:21;1.70;;;1.60;;
703;SDS011;335;48.694;9.120;2024-01-16T13:04:10;1.50;;;1.40;;
703;SDS011;335;48.694;9.120;2024-01-16T13:07:02;1.50;;;1.40;;
703;SDS011;335;48.694;9.120;2024-01-16T13:09:48;1.93;;;1.70;;
703;SDS011;335;48.694;9.120;2024-01-16T13:12:33;1.77;;;1.70;;
703;SDS011;335;48.694;9.120;2024-01-16T13:15:19;1.80;;;1.70;;
703;SDS011;335;48.694;9.120;2024-01-16T13:18:04;1.90;;;1.80;;
703;SDS011;335;48.694;9.120;2024-01-16T13:20:50;1.67;;;1.50;;
703;SDS011;335;48.694;9.120;2024-01-16T13:23:36;1.37;;;1.37;;
703;SDS011;335;48.694;9.120;2024-01-16T13:26:22;1.47;;;1.37;;
703;SDS011;335;48.694;9.120;2024-01-16T13:29:07;1.80;;;1.70;;
703;SDS011;335;48.694;9.120;2024-01-16T13:31:54;1.80;;;1.70;;
703;SDS011;335;48.694;9.120;2024-01-16T13:34:40;1.90;;;1.80;;
703;SDS011;335;48.694;9.120;2024-01-16T13:37:31;1.70;;;1.60;;
703;SDS011;335;48.694;9.120;2024-01-16T13:40:17;1.50;;;1.40;;
703;SDS011;335;48.694;9.120;2024-01-16T13:43:07;1.23;;;1.23;;
703;SDS011;335;48.694;9.120;2024-01-16T13:45:52;1.93;;;1.83;;
703;SDS011;335;48.694;9.120;2024-01-16T13:48:38;1.67;;;1.57;;
703;SDS011;335;48.694;9.120;2024-01-16T13:51:26;1.90;;;1.40;;
703;SDS011;335;48.694;9.120;2024-01-16T13:54:12;1.23;;;1.20;;
703;SDS011;335;48.694;9.120;2024-01-16T13:56:58;1.90;;;1.80;;
703;SDS011;335;48.694;9.120;2024-01-16T13:59:43;1.60;;;1.50;;
703;SDS011;335;48.694;9.120;2024-01-16T14:02:31;1.30;;;1.30;;
703;SDS011;335;48.694;9.120;2024-01-16T14:05:22;1.67;;;1.57;;
703;SDS011;335;48.694;9.120;2024-01-16T14:08:07;2.27;;;1.97;;
703;SDS011;335;48.694;9.120;2024-01-16T14:10:53;3.00;;;2.10;;
703;SDS011;335;48.694;9.120;2024-01-16T14:13:38;2.40;;;2.30;;
703;SDS011;335;48.694;9.120;2024-01-16T14:16:24;2.80;;;2.50;;
703;SDS011;335;48.694;9.120;2024-01-16T14:19:13;1.80;;;1.80;;
703;SDS011;335;48.694;9.120;2024-01-16T14:21:58;2.60;;;2.33;;
703;SDS011;335;48.694;9.120;2024-01-16T14:24:44;1.70;;;1.60;;
703;SDS011;335;48.694;9.120;2024-01-16T14:27:32;1.80;;;1.70;;
703;SDS011;335;48.694;9.120;2024-01-16T14:30:18;1.60;;;1.50;;
703;SDS011;335;48.694;9.120;2024-01-16T14:33:03;1.83;;;1.73;;
703;SDS011;335;48.694;9.120;2024-01-16T14:35:51;2.03;;;1.90;;
703;SDS011;335;48.694;9.120;2024-01-16T14:38:39;1.77;;;1.70;;
703;SDS011;335;48.694;9.120;2024-01-16T14:41:24;2.87;;;2.53;;
703;SDS011;335;48.694;9.120;2024-01-16T14:44:09;2.40;;;2.20;;
703;SDS011;335;48.694;9.120;2024-01-16T14:46:55;3.50;;;3.20;;
703;SDS011;335;48.694;9.120;2024-01-16T14:49:40;4.20;;;4.00;;
703;SDS011;335;48.694;9.120;2024-01-16T14:52:26;3.40;;;3.30;;
703;SDS011;335;48.694;9.120;2024-01-16T14:55:12;4.33;;;4.13;;
703;SDS011;335;48.694;9.120;2024-01-16T14:57:57;3.30;;;3.10;;
703;SDS011;335;48.694;9.120;2024-01-16T15:00:47;2.90;;;2.80;;
703;SDS011;335;48.694;9.120;2024-01-16T15:03:33;3.20;;;3.00;;
703;SDS011;335;48.694;9.120;2024-01-16T15:06:19;2.10;;;1.90;;
703;SDS011;335;48.694;9.120;2024-01-16T15:09:04;1.80;;;1.77;;
703;SDS011;335;48.694;9.120;2024-01-16T15:11:49;9.60;;;7.05;;
703;SDS011;335;48.694;9.120;2024-01-16T15:14:35;2.07;;;1.90;;
703;SDS011;335;48.694;9.120;2024-01-16T15:17:20;2.15;;;1.90;;
703;SDS011;335;48.694;9.120;2024-01-16T15:20:06;3.58;;;3.17;;
703;SDS011;335;48.694;9.120;2024-01-16T15:22:53;4.90;;;3.50;;
703;SDS011;335;48.694;9.120;2024-01-16T15:25:38;3.03;;;2.83;;
703;SDS011;335;48.694;9.120;2024-01-16T15:28:24;3.65;;;3.40;;
703;SDS011;335;48.694;9.120;2024-01-16T15:31:09;4.25;;;3.85;;
703;SDS011;335;48.694;9.120;2024-01-16T15:33:54;3.63;;;3.35;;
703;SDS011;335;48.694;9.120;2024-01-16T15:36:40;3.92;;;3.67;;
703;SDS011;335;48.694;9.120;2024-01-16T15:39:25;3.40;;;3.10;;
703;SDS011;335;48.694;9.120;2024-01-16T15:42:11;4.47;;;4.05;;
703;SDS011;335;48.694;9.120;2024-01-16T15:44:56;3.70;;;3.40;;
703;SDS011;335;48.694;9.120;2024-01-16T15:47:42;4.03;;;3.53;;
703;SDS011;335;48.694;9.120;2024-01-16T15:50:27;5.32;;;3.65;;
703;SDS011;335;48.694;9.120;2024-01-16T15:53:13;8.68;;;5.85;;
703;SDS011;335;48.694;9.120;2024-01-16T15:56:03;8.10;;;5.72;;
703;SDS011;335;48.694;9.120;2024-01-16T15:58:51;12.95;;;7.68;;
703;SDS011;335;48.694;9.120;2024-01-16T16:01:37;8.15;;;6.80;;
703;SDS011;335;48.694;9.120;2024-01-16T16:04:22;9.15;;;5.60;;
703;SDS011;335;48.694;9.120;2024-01-16T16:07:08;7.03;;;4.55;;
703;SDS011;335;48.694;9.120;2024-01-16T16:09:54;4.53;;;4.13;;
703;SDS011;335;48.694;9.120;2024-01-16T16:12:39;4.40;;;4.00;;
703;SDS011;335;48.694;9.120;2024-01-16T16:15:24;4.63;;;4.13;;
703;SDS011;335;48.694;9.120;2024-01-16T16:18:10;5.15;;;3.80;;
703;SDS011;335;48.694;9.120;2024-01-16T16:20:55;3.90;;;3.50;;
703;SDS011;335;48.694;9.120;2024-01-16T16:23:41;4.50;;;4.10;;
703;SDS011;335;48.694;9.120;2024-01-16T16:26:33;4.70;;;4.28;;
703;SDS011;335;48.694;9.120;2024-01-16T16:29:23;8.10;;;5.20;;
703;SDS011;335;48.694;9.120;2024-01-16T16:32:08;6.45;;;4.40;;
703;SDS011;335;48.694;9.120;2024-01-16T16:34:53;4.65;;;3.95;;
703;SDS011;335;48.694;9.120;2024-01-16T16:37:39;5.75;;;4.50;;
703;SDS011;335;48.694;9.120;2024-01-16T16:40:24;8.90;;;5.80;;
703;SDS011;335;48.694;9.120;2024-01-16T16:43:09;5.95;;;4.90;;
703;SDS011;335;48.694;9.120;2024-01-16T16:45:55;5.47;;;4.97;;
703;SDS011;335;48.694;9.120;2024-01-16T16:48:40;6.85;;;4.28;;
703;SDS011;335;48.694;9.120;2024-01-16T16:51:25;5.50;;;4.95;;
703;SDS011;335;48.694;9.120;2024-01-16T16:54:12;5.40;;;5.00;;
703;SDS011;335;48.694;9.120;2024-01-16T16:56:57;5.40;;;4.88;;
703;SDS011;335;48.694;9.120;2024-01-16T16:59:42;5.55;;;4.32;;
703;SDS011;335;48.694;9.120;2024-01-16T17:02:28;7.55;;;5.93;;
703;SDS011;335;48.694;9.120;2024-01-16T17:05:13;5.97;;;5.40;;
703;SDS011;335;48.694;9.120;2024-01-16T17:07:59;7.50;;;5.15;;
703;SDS011;335;48.694;9.120;2024-01-16T17:10:44;5.63;;;5.15;;
703;SDS011;335;48.694;9.120;2024-01-16T17:13:33;8.05;;;5.03;;
703;SDS011;335;48.694;9.120;2024-01-16T17:16:18;5.50;;;4.75;;
703;SDS011;335;48.694;9.120;2024-01-16T17:19:08;8.90;;;6.57;;
703;SDS011;335;48.694;9.120;2024-01-16T17:21:57;7.40;;;6.65;;
703;SDS011;335;48.694;9.120;2024-01-16T17:24:43;8.15;;;6.55;;
703;SDS011;335;48.694;9.120;2024-01-16T17:27:29;8.15;;;7.30;;
703;SDS011;335;48.694;9.120;2024-01-16T17:30:16;7.03;;;6.40;;
703;SDS011;335;48.694;9.120;2024-01-16T17:33:01;10.73;;;8.88;;
703;SDS011;335;48.694;9.120;2024-01-16T17:35:48;6.70;;;6.10;;
703;SDS011;335;48.694;9.120;2024-01-16T17:38:33;5.70;;;5.20;;
703;SDS011;335;48.694;9.120;2024-01-16T17:41:19;5.65;;;5.20;;
703;SDS011;335;48.694;9.120;2024-01-16T17:44:06;6.25;;;5.75;;
703;SDS011;335;48.694;9.120;2024-01-16T17:46:53;6.25;;;5.75;;
703;SDS011;335;48.694;9.120;2024-01-16T17:49:39;7.18;;;6.47;;
703;SDS011;335;48.694;9.120;2024-01-16T17:52:24;4.25;;;3.95;;
703;SDS011;335;48.694;9.120;2024-01-16T17:55:10;5.45;;;4.90;;
703;SDS011;335;48.694;9.120;2024-01-16T17:57:56;5.18;;;4.60;;